• Join FlightAware (Why Join?)
  • Login
  • US Flag 
08:46AM EST


 

Airport Tracker/Info


-or-


 

Live Flight TrackerFlight Track Log ✈ EJA831 ✈ 06-May-2014 ✈ CYHM - CYUL

Flight Track Log - Related Links

Times and Time Zones

All times are in EDT time to prevent confusion due to time zone crossing. See the EJA831 flight status page for this flight to view local times or setup timezone preferences in your user account.

Time Position Orientation Groundspeed Altitude Reporting Facility
EDT Latitude Longitude Course Direction KTS MPH feet Rate Location/Type
06:44PM 43.1833 -79.8667 27° Northeast 180 207 2,800  Level Toronto Center
06:45PM 43.2333 -79.8167 36° Northeast 200 230 3,100 1,450 Climbing Toronto Center
06:46PM 43.2167 -79.7167 103° East 240 276 5,700 2,700 Climbing Toronto Center
06:47PM 43.2000 -79.6333 105° East 280 322 8,500 2,850 Climbing Toronto Center
06:48PM 43.1711 -79.2123 36° Northeast  Level FlightAware Approximate
06:48PM 43.2167 -79.5167 79° East 300 345 11,400  Level Toronto Center
06:49PM 43.2509 -79.1519 27° Northeast  Level FlightAware Approximate
06:49PM 43.2333 -79.3833 80° East 340 391 14,600  Level Toronto Center
06:50PM 43.2833 -79.2667 59° Northeast 350 403 17,500 2,900 Climbing Toronto Center
06:51PM 43.3500 -79.1667 47° Northeast 340 391 20,400 2,600 Climbing Toronto Center
06:52PM 43.4333 -79.1000 30° Northeast 350 403 22,700 2,400 Climbing Toronto Center
06:53PM 43.5167 -79.0167 36° Northeast 360 414 25,200 2,350 Climbing Toronto Center
06:54PM 43.5833 -78.9167 47° Northeast 370 426 27,400 1,750 Climbing Toronto Center
06:55PM 43.6500 -78.7833 55° Northeast 400 460 28,700 800 Climbing Toronto Center
06:56PM 43.7167 -78.6333 58° Northeast 440 506 29,000 150 Climbing Toronto Center
06:57PM 43.7500 -78.4833 73° East 460 529 29,000  Level Toronto Center
06:58PM 43.8167 -78.3333 58° Northeast 450 518 29,000  Level Toronto Center
06:59PM 43.8833 -78.1833 58° Northeast 440 506 29,000  Level Toronto Center
07:00PM 43.9333 -78.0333 65° Northeast 440 506 29,000  Level Toronto Center
07:01PM 44.0000 -77.9000 55° Northeast 440 506 29,000  Level Toronto Center
07:02PM 44.0500 -77.7333 67° East 440 506 29,000  Level Toronto Center
07:03PM 44.1167 -77.5833 58° Northeast 430 495 29,000  Level Toronto Center
07:04PM 44.1667 -77.4500 62° Northeast 440 506 29,000  Level Toronto Center
07:05PM 44.2167 -77.2833 67° East 440 506 29,000  Level Toronto Center
07:06PM 44.2667 -77.1333 65° Northeast 440 506 29,000  Level Toronto Center
07:07PM 44.3333 -77.0000 55° Northeast 430 495 29,000  Level Toronto Center
07:08PM 44.3833 -76.8333 67° East 440 506 29,000  Level Toronto Center
07:09PM 44.4500 -76.6833 58° Northeast 430 495 29,000  Level Toronto Center
07:09PM 44.4833 -76.5833 65° Northeast 430 495 29,000  Level Montreal Center
07:11PM 44.5500 -76.3833 65° Northeast 420 483 29,000  Level Toronto Center
07:12PM 44.6000 -76.2333 65° Northeast 420 483 29,000  Level Toronto Center
07:13PM 44.6500 -76.1000 62° Northeast 430 495 29,000  Level Toronto Center
07:14PM 44.6833 -75.9333 74° East 430 495 29,000 -150 Level Toronto Center
07:15PM 44.7333 -75.7667 67° East 430 495 28,700 -800 Descending Toronto Center
07:16PM 44.7833 -75.6167 65° Northeast 440 506 27,400 -1,600 Descending Toronto Center
07:17PM 44.8167 -75.4667 73° East 430 495 25,500 -2,000 Descending Toronto Center
07:17PM 44.8500 -75.3500 68° East 420 483 23,600 -2,053 Descending Montreal Center
07:18PM 44.9000 -75.2167 62° Northeast 390 449 21,600 -2,050 Descending Montreal Center
07:19PM 44.9333 -75.0667 73° East 370 426 19,500 -1,950 Descending Montreal Center
07:20PM 44.9667 -74.9333 70° East 350 403 17,700 -1,950 Descending Montreal Center
07:21PM 45.0167 -74.8000 62° Northeast 340 391 15,600 -1,900 Descending Montreal Center
07:22PM 45.0667 -74.7167 50° Northeast 320 368 13,900 -2,000 Descending Montreal Center
07:23PM 45.1167 -74.6000 59° Northeast 310 357 11,600 -2,200 Descending Montreal Center
07:24PM 45.1500 -74.5000 65° Northeast 290 334 9,500 -1,750 Descending Montreal Center
07:25PM 45.2000 -74.4167 50° Northeast 260 299 8,100 -1,500 Descending Montreal Center
07:26PM 45.2167 -74.3333 74° East 270 311 6,500 -1,650 Descending Montreal Center
07:27PM 45.2333 -74.2333 77° East 270 311 4,800 -1,250 Descending Montreal Center
07:28PM 45.2500 -74.1167 78° East 250 288 4,000 -900 Descending Montreal Center
07:29PM 45.2667 -74.0333 74° East 250 288 3,000 -500 Descending Montreal Center
07:30PM 45.2833 -73.9500 74° East 240 276 3,000  Level Montreal Center
07:31PM 45.3333 -73.8667 50° Northeast 210 242 3,000 -450 Level Montreal Center
07:32PM 45.3667 -73.8167 46° Northeast 200 230 2,100 -900 Descending Montreal Center
07:33PM 45.4000 -73.7667 46° Northeast 170 196 1,200 -850 Descending Montreal Center
07:34PM 45.4333 -73.7500 19° North 120 138 400 -550 Descending Montreal Center
07:35PM 45.4500 -73.7167 55° Northeast 90 104 100 -150 Descending Montreal Center
07:36PM 45.4667 -73.7000 35° Northeast 20 23 100  Level Montreal Center